Pagrindinis puslapis
METAR-TAF:

METAR-TAF

Oro uostai :

Gibraltaras, Gibraltaras

platuma: 36-09N, ilguma: 005-21W, Aukštis: 5 m

Dabartinis oras

Ataskaita buvo paskelbta 49 minutes, ne 03:50 UTC
Vėjas 22 kt iš Rytų
Temperatūra 15°C
Drėgmė 77%
Slėgis 1029 hPa
Matomumas 10 km arba daugiau

METAR: LXGB 220350Z AUTO 09022KT 9999 // FEW018/// 15/11 Q1029

Laikas: 05:39 (04:39 UTC)

Prognozė

Ataskaita buvo paskelbta 9 valandos ir 16 minutes, ne 19:23 UTC
Prognozė galioja nuo 21 metu 21 UTC su 21 metu 23 UTC
Vėjas 20 kt iš Rytų su gūsio iki 30 kt
Matomumas 10 km arba daugiau
Mažai debesys ne aukštis 2000 ft

TAF: LXGB 211923Z 2121/2123 09020G30KT 9999 FEW020 520002

Orai ataskaitas ir orų prognozės (METAR, TAF).

turimą stotys yra geltonos ir raudonos taškus žemėlapyje.

Perkelti pele per norėdami pamatyti stoties vardą.

Tada spustelėkite, norėdami matyti oro stebėjimo ir prognozės.

Norėdami pakeisti žemėlapį: spustelėkite ant žalios mygtukų su juodo kryžiaus žemyn,; žalią mygtuką su brūkšneliu, jei norite nutolinti; arba žalių rodyklių gretimoms žemėlapius.


METAR-TAF: